CYNC

Wemindji Airport

Code ICAO CYNC
Code IATA YNC
Nom Wemindji Airport
Emplacement Wemindji, Quebec, CA
Élévation 66 pieds / 20.1 mètres
Latitude 53.01055556
Longitude -78.83111111
METAR CYNC 130300Z AUTO 20004KT 160V230 13/12 A2949
Informations extras Afficher cartes
Piste Longueur Largeur Surface Élévation
10 3511 ft 100 ft GRAVEL 30 ft
28 3511 ft 100 ft GRAVEL 66 ft